createdAt,value
2017-08-09T00:00:33.667Z,80.82
2017-08-09T00:03:02.358Z,81.11
2017-08-09T00:05:30.690Z,81.24
2017-08-09T00:07:59.028Z,81.59
2017-08-09T00:10:27.401Z,81.63
2017-08-09T00:12:56.690Z,81.50
2017-08-09T00:15:25.805Z,80.95
2017-08-09T00:17:54.131Z,81.04
2017-08-09T00:20:22.475Z,81.46
2017-08-09T00:22:50.835Z,81.08
2017-08-09T00:25:19.169Z,81.37
2017-08-09T00:27:47.514Z,81.21
2017-08-09T00:30:15.843Z,81.18
2017-08-09T00:32:44.186Z,81.23
2017-08-09T00:35:12.500Z,80.76
2017-08-09T00:37:40.866Z,81.10
2017-08-09T00:40:09.198Z,81.28
2017-08-09T00:42:37.521Z,81.13
2017-08-09T00:45:05.871Z,80.64
2017-08-09T00:47:34.192Z,80.50
2017-08-09T00:50:02.543Z,80.51
2017-08-09T00:52:30.881Z,80.50
2017-08-09T00:54:59.552Z,80.59
2017-08-09T00:57:27.870Z,80.10
2017-08-09T00:59:56.223Z,79.89
2017-08-09T01:02:24.627Z,79.97
2017-08-09T01:04:52.957Z,79.82
2017-08-09T01:07:21.312Z,79.99
2017-08-09T01:09:49.647Z,79.83
2017-08-09T01:12:18.694Z,80.16
2017-08-09T01:14:47.409Z,81.00
2017-08-09T01:17:16.564Z,80.84
2017-08-09T01:19:44.936Z,80.11
2017-08-09T01:22:13.269Z,79.86
2017-08-09T01:24:41.605Z,80.17
2017-08-09T01:27:09.942Z,79.37
2017-08-09T01:29:38.542Z,79.40
2017-08-09T01:32:06.864Z,80.18
2017-08-09T01:34:35.200Z,81.00
2017-08-09T01:37:03.569Z,80.87
2017-08-09T01:39:31.901Z,80.98
2017-08-09T01:42:00.256Z,81.66
2017-08-09T01:44:28.600Z,81.01
2017-08-09T01:46:57.704Z,80.92
2017-08-09T01:49:26.035Z,81.40
2017-08-09T01:51:54.371Z,81.16
2017-08-09T01:54:22.728Z,81.05
2017-08-09T01:56:51.820Z,80.72
2017-08-09T01:59:20.458Z,80.42
2017-08-09T02:01:48.845Z,80.85
2017-08-09T02:04:17.339Z,80.82
2017-08-09T02:06:45.666Z,81.16
2017-08-09T02:09:14.802Z,81.21
2017-08-09T02:11:43.145Z,81.39
2017-08-09T02:14:11.483Z,82.09
2017-08-09T02:16:39.828Z,81.95
2017-08-09T02:19:08.187Z,82.40
2017-08-09T02:21:37.688Z,82.11
2017-08-09T02:24:06.045Z,81.92
2017-08-09T02:26:35.147Z,82.39
2017-08-09T02:29:03.516Z,82.47
2017-08-09T02:31:31.859Z,82.77
2017-08-09T02:34:00.238Z,82.80
2017-08-09T02:36:28.572Z,82.93
2017-08-09T02:38:57.669Z,84.08
2017-08-09T02:41:26.033Z,84.02
2017-08-09T02:43:54.388Z,84.21
2017-08-09T02:46:22.724Z,84.24
2017-08-09T02:48:51.056Z,83.69
2017-08-09T02:51:19.645Z,84.01
2017-08-09T02:53:48.459Z,84.08
2017-08-09T02:56:17.538Z,84.75
2017-08-09T02:58:45.885Z,84.35
2017-08-09T03:01:14.205Z,84.80
2017-08-09T03:03:43.325Z,85.03
2017-08-09T03:06:11.648Z,84.64
2017-08-09T03:08:40.010Z,84.94
2017-08-09T03:11:08.388Z,84.23
2017-08-09T03:13:36.706Z,84.76
2017-08-09T03:16:05.049Z,84.34
2017-08-09T03:18:33.366Z,85.01
2017-08-09T03:21:01.696Z,84.94
2017-08-09T03:23:30.025Z,84.85
2017-08-09T03:25:58.743Z,84.85
2017-08-09T03:28:27.082Z,84.69
2017-08-09T03:30:55.424Z,84.90
2017-08-09T03:33:23.759Z,84.72
2017-08-09T03:35:52.843Z,84.85
2017-08-09T03:38:21.194Z,84.55
2017-08-09T03:40:49.524Z,84.82
2017-08-09T03:43:18.940Z,85.07
2017-08-09T03:45:47.265Z,85.03
2017-08-09T03:48:15.588Z,84.51
2017-08-09T03:50:43.950Z,84.61
2017-08-09T03:53:13.043Z,84.97
2017-08-09T03:55:41.377Z,84.57
2017-08-09T03:58:09.700Z,84.62
2017-08-09T04:00:38.434Z,84.41
2017-08-09T04:03:06.780Z,84.17
2017-08-09T04:05:36.469Z,85.41
2017-08-09T04:08:04.831Z,85.16
2017-08-09T04:10:33.180Z,85.04
2017-08-09T04:13:01.563Z,84.75
2017-08-09T04:15:29.925Z,84.78
2017-08-09T04:17:58.748Z,85.45
2017-08-09T04:20:27.073Z,84.85
2017-08-09T04:22:55.393Z,84.65
2017-08-09T04:25:23.723Z,84.86
2017-08-09T04:27:52.049Z,85.42
2017-08-09T04:30:20.398Z,85.26
2017-08-09T04:32:48.738Z,84.73
2017-08-09T04:35:17.112Z,84.70
2017-08-09T04:37:45.444Z,84.61
2017-08-09T04:40:13.786Z,84.62
2017-08-09T04:42:42.166Z,84.94
2017-08-09T04:45:10.560Z,85.62
2017-08-09T04:47:38.885Z,85.26
2017-08-09T04:50:07.269Z,85.20
2017-08-09T04:52:35.582Z,85.99
2017-08-09T04:55:03.917Z,86.60
2017-08-09T04:57:32.285Z,86.45
2017-08-09T05:00:01.183Z,86.54
2017-08-09T05:02:29.499Z,86.34
2017-08-09T05:04:57.855Z,86.84
2017-08-09T05:07:26.219Z,87.08
2017-08-09T05:09:54.559Z,86.80
2017-08-09T05:12:22.928Z,87.20
2017-08-09T05:14:51.271Z,86.91
2017-08-09T05:17:19.623Z,87.11
2017-08-09T05:19:47.958Z,86.62
2017-08-09T05:22:16.313Z,86.90
2017-08-09T05:24:44.676Z,86.95
2017-08-09T05:27:13.033Z,86.89
2017-08-09T05:29:41.377Z,87.01
2017-08-09T05:32:09.700Z,86.92
2017-08-09T05:34:38.819Z,86.87
2017-08-09T05:37:07.148Z,86.64
2017-08-09T05:39:35.496Z,86.13
2017-08-09T05:42:03.821Z,86.21
2017-08-09T05:44:32.136Z,85.83
2017-08-09T05:47:00.508Z,85.92
2017-08-09T05:49:28.831Z,85.59
2017-08-09T05:51:57.146Z,85.07
2017-08-09T05:54:25.501Z,84.17
2017-08-09T05:56:53.867Z,85.33
2017-08-09T05:59:22.205Z,84.44
2017-08-09T06:01:50.555Z,83.56
2017-08-09T06:04:19.664Z,83.70
2017-08-09T06:06:48.023Z,83.22
2017-08-09T06:09:16.355Z,82.86
2017-08-09T06:11:44.711Z,83.40
2017-08-09T06:14:13.050Z,82.38
2017-08-09T06:16:42.382Z,81.58
2017-08-09T06:19:11.489Z,81.66
2017-08-09T06:21:39.820Z,81.37
2017-08-09T06:24:08.174Z,81.44
2017-08-09T06:26:36.496Z,81.69
2017-08-09T06:29:04.837Z,81.67
2017-08-09T06:31:33.257Z,80.95
2017-08-09T06:34:01.622Z,80.71
2017-08-09T06:36:29.969Z,80.70
2017-08-09T06:38:58.322Z,80.45
2017-08-09T06:41:26.689Z,80.04
2017-08-09T06:43:55.493Z,79.76
2017-08-09T06:46:23.853Z,79.06
2017-08-09T06:48:53.017Z,79.00
2017-08-09T06:51:21.386Z,79.57
2017-08-09T06:53:49.720Z,78.36
2017-08-09T06:56:18.042Z,78.64
2017-08-09T06:58:46.393Z,78.07
2017-08-09T07:01:14.721Z,78.88
2017-08-09T07:03:43.071Z,78.86
2017-08-09T07:06:11.407Z,77.37
2017-08-09T07:08:39.760Z,77.09
2017-08-09T07:11:08.111Z,76.81
2017-08-09T07:13:36.455Z,76.60
2017-08-09T07:16:04.831Z,76.22
2017-08-09T07:18:33.161Z,76.54
2017-08-09T07:21:01.521Z,77.62
2017-08-09T07:23:29.868Z,76.48
2017-08-09T07:25:58.970Z,76.23
2017-08-09T07:28:27.325Z,76.51
2017-08-09T07:30:55.672Z,76.82
2017-08-09T07:33:24.026Z,75.30
2017-08-09T07:35:52.383Z,74.41
2017-08-09T07:38:21.496Z,74.34
2017-08-09T07:40:49.867Z,74.18
2017-08-09T07:43:18.211Z,74.93
2017-08-09T07:45:46.557Z,74.08
2017-08-09T07:48:14.909Z,73.06
2017-08-09T07:50:43.236Z,72.62
2017-08-09T07:53:12.079Z,72.67
2017-08-09T07:55:40.394Z,71.95
2017-08-09T07:58:08.737Z,72.37
2017-08-09T08:00:37.085Z,73.32
2017-08-09T08:03:05.402Z,72.14
2017-08-09T08:05:33.742Z,72.22
2017-08-09T08:08:02.075Z,71.65
2017-08-09T08:10:30.445Z,73.49
2017-08-09T08:12:58.786Z,72.53
2017-08-09T08:15:27.117Z,71.17
2017-08-09T08:17:55.470Z,71.17
2017-08-09T08:20:23.809Z,70.55
2017-08-09T08:22:52.186Z,69.64
2017-08-09T08:25:20.539Z,68.74
2017-08-09T08:27:48.890Z,70.40
2017-08-09T08:30:17.214Z,70.01
2017-08-09T08:32:45.598Z,70.16
2017-08-09T08:35:13.935Z,70.26
2017-08-09T08:37:42.287Z,69.76
2017-08-09T08:40:10.644Z,69.02
2017-08-09T08:42:38.968Z,69.20
2017-08-09T08:45:07.310Z,68.83
2017-08-09T08:47:35.628Z,68.24
2017-08-09T08:50:03.988Z,67.44
2017-08-09T08:52:32.340Z,67.57
2017-08-09T08:55:00.673Z,68.91
2017-08-09T08:57:29.045Z,68.57
2017-08-09T08:59:57.393Z,67.46
2017-08-09T09:02:25.755Z,66.39
2017-08-09T09:04:54.088Z,66.07
2017-08-09T09:07:22.453Z,66.46
2017-08-09T09:09:50.837Z,66.08
2017-08-09T09:12:19.171Z,66.68
2017-08-09T09:14:47.778Z,65.77
2017-08-09T09:17:16.106Z,66.27
2017-08-09T09:19:44.442Z,67.16
2017-08-09T09:22:12.821Z,65.09
2017-08-09T09:24:41.163Z,64.28
2017-08-09T09:27:09.552Z,63.89
2017-08-09T09:29:37.881Z,64.28
2017-08-09T09:32:06.244Z,65.04
2017-08-09T09:34:35.347Z,64.53
2017-08-09T09:37:03.678Z,62.86
2017-08-09T09:39:32.024Z,63.81
2017-08-09T09:42:00.379Z,63.55
2017-08-09T09:44:29.490Z,63.42
2017-08-09T09:46:57.847Z,63.30
2017-08-09T09:49:26.197Z,63.94
2017-08-09T09:51:54.527Z,62.46
2017-08-09T09:54:22.873Z,63.01
2017-08-09T09:56:51.218Z,62.29
2017-08-09T09:59:19.559Z,62.70
2017-08-09T10:01:47.893Z,62.02
2017-08-09T10:04:16.242Z,64.38
2017-08-09T10:06:44.594Z,65.21
2017-08-09T10:09:12.947Z,62.12
2017-08-09T10:11:41.602Z,61.11
2017-08-09T10:14:09.934Z,60.34
2017-08-09T10:16:39.034Z,61.60
2017-08-09T10:19:07.390Z,61.20
2017-08-09T10:21:35.708Z,60.99
2017-08-09T10:24:04.049Z,61.46
2017-08-09T10:26:32.389Z,62.73
2017-08-09T10:29:00.747Z,61.77
2017-08-09T10:31:29.117Z,60.20
2017-08-09T10:33:57.462Z,62.34
2017-08-09T10:36:25.814Z,63.91
2017-08-09T10:38:54.157Z,65.81
2017-08-09T10:41:22.476Z,64.09
2017-08-09T10:43:50.850Z,62.25
2017-08-09T10:46:19.172Z,61.59
2017-08-09T10:48:47.509Z,65.48
2017-08-09T10:51:15.862Z,65.48
2017-08-09T10:53:44.202Z,61.06
2017-08-09T10:56:12.585Z,61.99
2017-08-09T10:58:40.930Z,64.58
2017-08-09T11:01:09.263Z,64.13
2017-08-09T11:03:37.612Z,63.18
2017-08-09T11:06:05.972Z,64.52
2017-08-09T11:08:34.305Z,63.84
2017-08-09T11:11:03.442Z,64.23
2017-08-09T11:13:31.783Z,63.62
2017-08-09T11:16:00.132Z,61.42
2017-08-09T11:18:28.539Z,60.26
2017-08-09T11:20:56.866Z,59.56
2017-08-09T11:23:25.230Z,60.19
2017-08-09T11:25:53.571Z,61.54
2017-08-09T11:28:22.710Z,59.74
2017-08-09T11:30:51.046Z,60.97
2017-08-09T11:33:19.407Z,60.13
2017-08-09T11:35:47.746Z,59.25
2017-08-09T11:38:16.752Z,59.74
2017-08-09T11:40:45.215Z,61.27
2017-08-09T11:43:13.548Z,58.12
2017-08-09T11:45:41.885Z,57.42
2017-08-09T11:48:10.208Z,58.61
2017-08-09T11:50:38.566Z,57.98
2017-08-09T11:53:06.948Z,59.21
2017-08-09T11:55:35.315Z,57.56
2017-08-09T11:58:03.647Z,56.17
2017-08-09T12:00:31.955Z,55.79
2017-08-09T12:03:00.292Z,57.57
2017-08-09T12:05:28.643Z,54.00
2017-08-09T12:07:57.008Z,54.31
2017-08-09T12:10:25.338Z,57.14
2017-08-09T12:12:54.453Z,53.65
2017-08-09T12:15:22.792Z,53.55
2017-08-09T12:17:51.140Z,55.10
2017-08-09T12:20:19.496Z,54.66
2017-08-09T12:22:47.824Z,57.05
2017-08-09T12:25:16.184Z,54.46
2017-08-09T12:27:44.508Z,54.52
2017-08-09T12:30:13.473Z,57.44
2017-08-09T12:32:41.800Z,57.31
2017-08-09T12:35:10.156Z,56.89
2017-08-09T12:37:38.511Z,53.32
2017-08-09T12:40:06.850Z,53.29
2017-08-09T12:42:35.180Z,52.79
2017-08-09T12:45:03.490Z,56.42
2017-08-09T12:47:31.847Z,54.32
2017-08-09T12:50:00.178Z,56.42
2017-08-09T12:52:28.559Z,55.14
2017-08-09T12:54:56.902Z,53.46
2017-08-09T12:57:25.256Z,52.74
2017-08-09T12:59:53.577Z,54.01
2017-08-09T13:02:21.933Z,54.28
2017-08-09T13:04:56.155Z,53.17
2017-08-09T13:07:24.955Z,53.62
2017-08-09T13:09:53.280Z,53.69
2017-08-09T13:12:21.613Z,52.95
2017-08-09T13:14:49.955Z,53.61
2017-08-09T13:17:18.293Z,54.40
2017-08-09T13:19:46.640Z,53.95
2017-08-09T13:22:15.018Z,51.37
2017-08-09T13:24:43.367Z,50.47
2017-08-09T13:27:11.710Z,50.01
2017-08-09T13:29:40.039Z,49.57
2017-08-09T13:32:08.400Z,48.27
2017-08-09T13:34:36.710Z,49.41
2017-08-09T13:37:05.057Z,48.96
2017-08-09T13:39:33.371Z,47.50
2017-08-09T13:42:02.351Z,48.25
2017-08-09T13:44:30.698Z,49.70
2017-08-09T13:46:59.058Z,49.49
2017-08-09T13:49:27.497Z,48.83
2017-08-09T13:51:55.833Z,49.64
2017-08-09T13:54:24.209Z,50.45
2017-08-09T13:56:52.542Z,48.08
2017-08-09T13:59:20.901Z,48.58
2017-08-09T14:01:49.255Z,47.54
2017-08-09T14:04:17.585Z,47.03
2017-08-09T14:06:46.698Z,48.55
2017-08-09T14:09:15.027Z,48.50
2017-08-09T14:11:44.670Z,48.37
2017-08-09T14:14:13.507Z,48.22
2017-08-09T14:16:41.839Z,46.94
2017-08-09T14:19:11.032Z,47.15
2017-08-09T14:21:39.360Z,45.76
2017-08-09T14:24:08.097Z,44.84
2017-08-09T14:26:36.416Z,44.41
2017-08-09T14:29:04.760Z,46.10
2017-08-09T14:31:33.873Z,45.44
2017-08-09T14:34:02.208Z,44.41
2017-08-09T14:36:30.561Z,44.72
2017-08-09T14:38:58.903Z,45.06
2017-08-09T14:41:27.293Z,44.46
2017-08-09T14:43:55.619Z,43.34
2017-08-09T14:46:24.378Z,43.75
2017-08-09T14:48:52.708Z,43.38
2017-08-09T14:51:21.802Z,42.26
2017-08-09T14:53:50.134Z,42.34
2017-08-09T14:56:18.506Z,41.64
2017-08-09T14:58:46.839Z,41.13
2017-08-09T15:01:15.169Z,40.71
2017-08-09T15:03:43.628Z,41.20
2017-08-09T15:06:13.101Z,38.68
2017-08-09T15:08:41.422Z,38.76
2017-08-09T15:11:09.800Z,39.39
2017-08-09T15:13:38.853Z,37.83
2017-08-09T15:16:07.195Z,37.86
2017-08-09T15:18:35.518Z,37.33
2017-08-09T15:21:03.871Z,37.63
2017-08-09T15:23:32.942Z,38.61
2017-08-09T15:26:01.299Z,39.75
2017-08-09T15:28:29.627Z,39.81
2017-08-09T15:30:57.971Z,41.78
2017-08-09T15:33:26.298Z,39.27
2017-08-09T15:35:54.644Z,38.23
2017-08-09T15:38:23.006Z,38.58
2017-08-09T15:40:51.365Z,38.53
2017-08-09T15:43:19.708Z,37.70
2017-08-09T15:45:48.058Z,37.30
2017-08-09T15:48:16.415Z,35.95
2017-08-09T15:50:44.753Z,37.45
2017-08-09T15:53:13.116Z,37.66
2017-08-09T15:55:41.429Z,40.53
2017-08-09T15:58:09.783Z,41.37
2017-08-09T16:00:38.109Z,40.71
2017-08-09T16:03:06.464Z,42.02
2017-08-09T16:05:35.297Z,42.28
2017-08-09T16:08:03.660Z,43.17
2017-08-09T16:10:32.012Z,42.82
2017-08-09T16:13:01.162Z,43.41
2017-08-09T16:15:29.524Z,41.43
2017-08-09T16:17:57.867Z,41.02
2017-08-09T16:20:26.225Z,44.21
2017-08-09T16:22:54.565Z,43.17
2017-08-09T16:25:23.339Z,42.22
2017-08-09T16:27:51.678Z,44.55
2017-08-09T16:30:20.028Z,42.71
2017-08-09T16:32:48.802Z,43.36
2017-08-09T16:35:17.155Z,42.49
2017-08-09T16:37:45.490Z,44.88
2017-08-09T16:40:13.861Z,45.93
2017-08-09T16:42:42.240Z,45.16
2017-08-09T16:45:10.580Z,46.41
2017-08-09T16:47:39.682Z,46.99
2017-08-09T16:50:08.024Z,49.56
2017-08-09T16:52:36.399Z,48.16
2017-08-09T16:55:04.752Z,49.15
2017-08-09T16:57:33.122Z,46.50
2017-08-09T17:00:01.461Z,47.91
2017-08-09T17:02:31.093Z,47.86
2017-08-09T17:04:59.419Z,46.20
2017-08-09T17:07:27.775Z,46.32
2017-08-09T17:09:56.122Z,46.67
2017-08-09T17:12:25.054Z,45.36
2017-08-09T17:14:53.399Z,45.37
2017-08-09T17:17:21.785Z,45.12
2017-08-09T17:19:50.139Z,47.49
2017-08-09T17:22:19.226Z,45.44
2017-08-09T17:24:47.596Z,46.79
2017-08-09T17:27:15.953Z,47.68
2017-08-09T17:29:44.318Z,47.17
2017-08-09T17:32:12.640Z,45.30
2017-08-09T17:34:40.989Z,45.91
2017-08-09T17:37:09.353Z,47.52
2017-08-09T17:39:37.691Z,49.92
2017-08-09T17:42:06.808Z,51.88
2017-08-09T17:44:35.145Z,53.94
2017-08-09T17:47:03.506Z,54.82
2017-08-09T17:49:31.831Z,55.19
2017-08-09T17:52:00.956Z,56.21
2017-08-09T17:54:31.914Z,56.57
2017-08-09T17:57:01.491Z,56.88
2017-08-09T17:59:30.067Z,56.80
2017-08-09T18:01:58.395Z,57.07
2017-08-09T18:04:27.307Z,57.72
2017-08-09T18:06:55.649Z,58.59
2017-08-09T18:09:24.023Z,59.06
2017-08-09T18:11:52.354Z,59.68
2017-08-09T18:14:21.115Z,59.82
2017-08-09T18:16:49.816Z,60.49
2017-08-09T18:19:18.512Z,61.13
2017-08-09T18:21:47.003Z,61.20
2017-08-09T18:24:17.357Z,61.42
2017-08-09T18:26:45.726Z,61.44
2017-08-09T18:29:14.154Z,60.80
2017-08-09T18:31:42.764Z,61.07
2017-08-09T18:34:11.094Z,61.87
2017-08-09T18:36:39.444Z,61.27
2017-08-09T18:39:07.825Z,61.22
2017-08-09T18:41:36.194Z,61.71
2017-08-09T18:44:04.561Z,61.44
2017-08-09T18:46:32.898Z,62.08
2017-08-09T18:49:01.538Z,60.56
2017-08-09T18:51:29.873Z,61.56
2017-08-09T18:53:58.653Z,61.51
2017-08-09T18:56:27.029Z,62.13
2017-08-09T18:58:55.383Z,62.55
2017-08-09T19:01:24.509Z,63.08
2017-08-09T19:03:52.867Z,62.97
2017-08-09T19:06:21.218Z,63.88
2017-08-09T19:08:49.600Z,64.06
2017-08-09T19:11:17.939Z,63.45
2017-08-09T19:13:46.368Z,64.16
2017-08-09T19:16:14.760Z,64.08
2017-08-09T19:18:43.128Z,64.12
2017-08-09T19:21:11.502Z,64.33
2017-08-09T19:23:39.888Z,65.00
2017-08-09T19:26:08.220Z,65.38
2017-08-09T19:28:36.583Z,65.72
2017-08-09T19:31:05.302Z,65.65
2017-08-09T19:33:33.653Z,66.43
2017-08-09T19:36:02.866Z,66.88
2017-08-09T19:38:31.611Z,66.47
2017-08-09T19:41:01.240Z,66.01
2017-08-09T19:43:29.683Z,66.22
2017-08-09T19:45:58.035Z,66.56
2017-08-09T19:48:26.408Z,67.56
2017-08-09T19:50:54.789Z,67.79
2017-08-09T19:53:23.148Z,68.39
2017-08-09T19:55:51.478Z,67.77
2017-08-09T19:58:19.827Z,68.47
2017-08-09T20:00:48.666Z,68.14
2017-08-09T20:03:17.038Z,68.47
2017-08-09T20:05:45.443Z,68.88
2017-08-09T20:08:13.811Z,69.05
2017-08-09T20:10:42.857Z,68.79
2017-08-09T20:13:11.321Z,69.07
2017-08-09T20:15:39.832Z,69.36
2017-08-09T20:18:08.184Z,69.80
2017-08-09T20:20:36.594Z,70.26
2017-08-09T20:23:04.962Z,70.17
2017-08-09T20:25:33.349Z,69.77
2017-08-09T20:28:02.169Z,70.43
2017-08-09T20:30:30.509Z,69.77
2017-08-09T20:32:58.916Z,69.89
2017-08-09T20:35:27.247Z,70.54
2017-08-09T20:37:55.631Z,70.75
2017-08-09T20:40:24.655Z,70.97
2017-08-09T20:42:52.991Z,72.25
2017-08-09T20:45:21.345Z,72.39
2017-08-09T20:47:49.684Z,73.77
2017-08-09T20:50:18.432Z,74.26
2017-08-09T20:52:46.773Z,75.95
2017-08-09T20:55:15.113Z,75.68
2017-08-09T20:57:46.167Z,73.70
2017-08-09T21:00:14.516Z,77.52
2017-08-09T21:02:42.874Z,78.99
2017-08-09T21:05:11.685Z,80.12
2017-08-09T21:07:40.047Z,80.75
2017-08-09T21:10:09.180Z,81.81
2017-08-09T21:12:37.519Z,82.35
2017-08-09T21:15:05.880Z,83.26
2017-08-09T21:17:34.204Z,83.24
2017-08-09T21:20:03.336Z,83.59
2017-08-09T21:22:32.246Z,83.11
2017-08-09T21:25:00.989Z,83.16
2017-08-09T21:27:29.320Z,84.27
2017-08-09T21:29:57.701Z,83.58
2017-08-09T21:32:26.050Z,84.92
2017-08-09T21:34:54.392Z,85.66
2017-08-09T21:37:23.580Z,85.22
2017-08-09T21:39:51.897Z,85.84
2017-08-09T21:42:20.493Z,86.59
2017-08-09T21:44:48.839Z,86.32
2017-08-09T21:47:17.943Z,85.69
2017-08-09T21:49:46.276Z,85.23
2017-08-09T21:52:14.592Z,84.33
2017-08-09T21:54:43.701Z,83.71
2017-08-09T21:57:12.018Z,85.64
2017-08-09T21:59:40.744Z,84.95
2017-08-09T22:02:09.800Z,85.08
2017-08-09T22:04:39.018Z,85.17
2017-08-09T22:07:08.573Z,84.61
2017-08-09T22:09:36.946Z,85.73
2017-08-09T22:12:05.367Z,84.13
2017-08-09T22:14:33.695Z,84.38
2017-08-09T22:17:03.131Z,85.81
2017-08-09T22:19:31.455Z,86.45
2017-08-09T22:21:59.790Z,86.08
2017-08-09T22:24:28.149Z,86.17
2017-08-09T22:26:56.491Z,86.93
2017-08-09T22:29:24.834Z,87.68
2017-08-09T22:31:53.159Z,87.12
2017-08-09T22:34:21.508Z,87.12
2017-08-09T22:36:49.846Z,86.75
2017-08-09T22:39:18.189Z,86.96
2017-08-09T22:41:46.752Z,87.48
2017-08-09T22:44:15.084Z,87.88
2017-08-09T22:46:43.424Z,87.76
2017-08-09T22:49:11.743Z,86.83
2017-08-09T22:51:40.441Z,87.13
2017-08-09T22:54:08.769Z,88.14
2017-08-09T22:56:37.088Z,88.53
2017-08-09T22:59:06.212Z,88.01
2017-08-09T23:01:34.541Z,86.98
2017-08-09T23:04:02.890Z,87.21
2017-08-09T23:06:31.207Z,88.10
2017-08-09T23:09:00.581Z,88.68
2017-08-09T23:11:28.911Z,88.54
2017-08-09T23:13:57.228Z,88.76
2017-08-09T23:16:25.560Z,88.59
2017-08-09T23:18:53.893Z,88.63
2017-08-09T23:21:22.247Z,88.28
2017-08-09T23:23:51.268Z,88.41
2017-08-09T23:26:19.622Z,89.05
2017-08-09T23:28:47.961Z,89.11
2017-08-09T23:31:16.286Z,87.83
2017-08-09T23:33:44.627Z,88.12
2017-08-09T23:36:13.730Z,88.50
2017-08-09T23:38:42.076Z,88.98
2017-08-09T23:41:10.411Z,89.25
2017-08-09T23:43:38.770Z,89.21
2017-08-09T23:46:07.123Z,89.73
2017-08-09T23:48:35.431Z,89.46
2017-08-09T23:51:04.205Z,89.90
2017-08-09T23:53:33.421Z,89.84
2017-08-09T23:56:02.196Z,89.82
2017-08-09T23:58:31.283Z,89.94
